Terminal Aerodrome Forecast
Issued by NWS

Home | Current Version | Previous Version | Text Only | Print | Product List | Glossary On
Versions: 1 2 3 4 5 6 7 8 9 10 11 12 13 14
000
FTAK31 PAJN 301159 AAA
TAFASI
TAF AMD
PASI 301159Z 3012/3112 14008KT P6SM VCSH BKN035 OVC050
      TEMPO 3012/3016 16010G20KT 4SM SHRA BR BKN020 OVC030
     FM301600 14010G20KT 6SM RA BR BKN020 OVC030
     FM301900 09020G35KT 5SM RA BR BKN015 OVC030
     FM302100 01020G35KT 5SM RA BR BKN015 OVC030
     FM310000 30015G28KT 5SM -RA BR SCT015 OVC030
     FM310300 27012G20KT 6SM -SHRA BR SCT020 OVC035
     FM310900 22010G20KT P6SM VCSH SCT025 OVC050=

USA.gov is the U.S. government's official web portal to all federal, state and local government web resources and services.